sensor_id;sensor_type;location;lat;lon;timestamp;temperature;humidity
24460;DHT22;12630;50.860;5.714;2022-12-29T00:02:15;11.50;1.00
24460;DHT22;12630;50.860;5.714;2022-12-29T00:04:43;11.60;1.00
24460;DHT22;12630;50.860;5.714;2022-12-29T00:07:11;11.60;99.90
24460;DHT22;12630;50.860;5.714;2022-12-29T00:09:38;11.60;99.90
24460;DHT22;12630;50.860;5.714;2022-12-29T00:12:07;11.60;99.90
24460;DHT22;12630;50.860;5.714;2022-12-29T00:14:34;11.70;99.90
24460;DHT22;12630;50.860;5.714;2022-12-29T00:17:19;11.70;99.90
24460;DHT22;12630;50.860;5.714;2022-12-29T00:19:46;11.70;99.90
24460;DHT22;12630;50.860;5.714;2022-12-29T00:22:31;11.70;99.90
24460;DHT22;12630;50.860;5.714;2022-12-29T00:25:16;11.70;99.90
24460;DHT22;12630;50.860;5.714;2022-12-29T00:28:02;11.70;99.90
24460;DHT22;12630;50.860;5.714;2022-12-29T00:30:59;11.70;99.90
24460;DHT22;12630;50.860;5.714;2022-12-29T00:33:44;11.90;99.90
24460;DHT22;12630;50.860;5.714;2022-12-29T00:36:31;11.80;99.90
24460;DHT22;12630;50.860;5.714;2022-12-29T00:39:02;11.80;99.90
24460;DHT22;12630;50.860;5.714;2022-12-29T00:41:47;11.80;99.90
24460;DHT22;12630;50.860;5.714;2022-12-29T00:44:33;11.90;94.90
24460;DHT22;12630;50.860;5.714;2022-12-29T00:47:01;11.80;42.60
24460;DHT22;12630;50.860;5.714;2022-12-29T00:49:30;11.80;51.00
24460;DHT22;12630;50.860;5.714;2022-12-29T00:51:58;11.80;31.70
24460;DHT22;12630;50.860;5.714;2022-12-29T00:54:26;11.80;17.30
24460;DHT22;12630;50.860;5.714;2022-12-29T00:56:53;11.80;1.00
24460;DHT22;12630;50.860;5.714;2022-12-29T00:59:21;11.80;1.00
24460;DHT22;12630;50.860;5.714;2022-12-29T01:01:51;11.80;1.00
24460;DHT22;12630;50.860;5.714;2022-12-29T01:04:19;11.80;1.00
24460;DHT22;12630;50.860;5.714;2022-12-29T01:06:47;11.90;1.00
24460;DHT22;12630;50.860;5.714;2022-12-29T01:09:14;11.80;1.00
24460;DHT22;12630;50.860;5.714;2022-12-29T01:11:59;11.80;1.00
24460;DHT22;12630;50.860;5.714;2022-12-29T01:14:26;11.90;1.00
24460;DHT22;12630;50.860;5.714;2022-12-29T01:16:56;11.90;1.00
24460;DHT22;12630;50.860;5.714;2022-12-29T01:19:24;11.90;1.00
24460;DHT22;12630;50.860;5.714;2022-12-29T01:21:52;11.90;1.00
24460;DHT22;12630;50.860;5.714;2022-12-29T01:24:20;11.90;1.00
24460;DHT22;12630;50.860;5.714;2022-12-29T01:26:47;11.90;1.00
24460;DHT22;12630;50.860;5.714;2022-12-29T01:29:15;12.00;1.00
24460;DHT22;12630;50.860;5.714;2022-12-29T01:31:42;11.90;1.00
24460;DHT22;12630;50.860;5.714;2022-12-29T01:34:11;12.00;1.00
24460;DHT22;12630;50.860;5.714;2022-12-29T01:36:38;11.90;1.00
24460;DHT22;12630;50.860;5.714;2022-12-29T01:39:06;11.90;1.00
24460;DHT22;12630;50.860;5.714;2022-12-29T01:41:33;12.00;1.00
24460;DHT22;12630;50.860;5.714;2022-12-29T01:44:01;12.00;1.00
24460;DHT22;12630;50.860;5.714;2022-12-29T01:46:31;12.00;1.00
24460;DHT22;12630;50.860;5.714;2022-12-29T01:49:05;12.00;1.00
24460;DHT22;12630;50.860;5.714;2022-12-29T01:51:39;12.00;1.00
24460;DHT22;12630;50.860;5.714;2022-12-29T01:54:09;12.00;1.00
24460;DHT22;12630;50.860;5.714;2022-12-29T01:56:38;12.00;1.00
24460;DHT22;12630;50.860;5.714;2022-12-29T01:59:10;12.10;1.00
24460;DHT22;12630;50.860;5.714;2022-12-29T02:01:39;12.00;1.00
24460;DHT22;12630;50.860;5.714;2022-12-29T02:04:07;12.00;1.00
24460;DHT22;12630;50.860;5.714;2022-12-29T02:06:41;12.00;1.00
24460;DHT22;12630;50.860;5.714;2022-12-29T02:09:10;12.00;1.00
24460;DHT22;12630;50.860;5.714;2022-12-29T02:11:39;12.10;1.00
24460;DHT22;12630;50.860;5.714;2022-12-29T02:14:09;12.10;1.00
24460;DHT22;12630;50.860;5.714;2022-12-29T02:16:55;12.00;1.00
24460;DHT22;12630;50.860;5.714;2022-12-29T02:22:27;11.80;1.00
24460;DHT22;12630;50.860;5.714;2022-12-29T02:25:34;11.70;1.00
24460;DHT22;12630;50.860;5.714;2022-12-29T02:28:23;11.70;1.00
24460;DHT22;12630;50.860;5.714;2022-12-29T02:31:04;11.70;1.00
24460;DHT22;12630;50.860;5.714;2022-12-29T02:33:42;11.70;1.00
24460;DHT22;12630;50.860;5.714;2022-12-29T02:36:19;11.70;1.00
24460;DHT22;12630;50.860;5.714;2022-12-29T02:38:56;11.70;1.00
24460;DHT22;12630;50.860;5.714;2022-12-29T02:41:31;11.70;1.00
24460;DHT22;12630;50.860;5.714;2022-12-29T02:44:03;11.60;1.00
24460;DHT22;12630;50.860;5.714;2022-12-29T02:46:36;11.50;1.00
24460;DHT22;12630;50.860;5.714;2022-12-29T02:49:09;11.60;1.00
24460;DHT22;12630;50.860;5.714;2022-12-29T02:51:45;11.60;1.00
24460;DHT22;12630;50.860;5.714;2022-12-29T02:54:17;11.60;1.00
24460;DHT22;12630;50.860;5.714;2022-12-29T02:57:02;11.60;1.00
24460;DHT22;12630;50.860;5.714;2022-12-29T02:59:30;11.60;1.00
24460;DHT22;12630;50.860;5.714;2022-12-29T03:02:15;11.70;1.00
24460;DHT22;12630;50.860;5.714;2022-12-29T03:07:49;11.70;1.00
24460;DHT22;12630;50.860;5.714;2022-12-29T03:10:33;11.90;1.00
24460;DHT22;12630;50.860;5.714;2022-12-29T03:13:04;11.90;1.00
24460;DHT22;12630;50.860;5.714;2022-12-29T03:15:58;12.00;1.00
24460;DHT22;12630;50.860;5.714;2022-12-29T03:18:44;12.00;1.00
24460;DHT22;12630;50.860;5.714;2022-12-29T03:21:17;12.00;1.00
24460;DHT22;12630;50.860;5.714;2022-12-29T03:23:48;11.90;1.00
24460;DHT22;12630;50.860;5.714;2022-12-29T03:26:17;12.00;1.00
24460;DHT22;12630;50.860;5.714;2022-12-29T03:28:51;11.90;1.00
24460;DHT22;12630;50.860;5.714;2022-12-29T03:31:19;11.80;1.00
24460;DHT22;12630;50.860;5.714;2022-12-29T03:33:50;11.80;1.00
24460;DHT22;12630;50.860;5.714;2022-12-29T03:36:27;11.80;1.00
24460;DHT22;12630;50.860;5.714;2022-12-29T03:39:01;11.90;1.00
24460;DHT22;12630;50.860;5.714;2022-12-29T03:41:30;11.90;1.00
24460;DHT22;12630;50.860;5.714;2022-12-29T03:43:58;11.90;1.00
24460;DHT22;12630;50.860;5.714;2022-12-29T03:46:25;11.90;1.00
24460;DHT22;12630;50.860;5.714;2022-12-29T03:48:54;12.00;1.00
24460;DHT22;12630;50.860;5.714;2022-12-29T03:51:21;12.00;1.00
24460;DHT22;12630;50.860;5.714;2022-12-29T03:53:49;12.00;1.00
24460;DHT22;12630;50.860;5.714;2022-12-29T03:56:16;12.10;1.00
24460;DHT22;12630;50.860;5.714;2022-12-29T03:58:43;12.20;1.00
24460;DHT22;12630;50.860;5.714;2022-12-29T04:01:11;12.10;1.00
24460;DHT22;12630;50.860;5.714;2022-12-29T04:03:38;12.10;1.00
24460;DHT22;12630;50.860;5.714;2022-12-29T04:06:07;12.10;1.00
24460;DHT22;12630;50.860;5.714;2022-12-29T04:08:34;12.20;1.00
24460;DHT22;12630;50.860;5.714;2022-12-29T04:11:01;12.20;1.00
24460;DHT22;12630;50.860;5.714;2022-12-29T04:13:30;12.30;1.00
24460;DHT22;12630;50.860;5.714;2022-12-29T04:15:57;12.30;1.00
24460;DHT22;12630;50.860;5.714;2022-12-29T04:18:24;12.30;1.00
24460;DHT22;12630;50.860;5.714;2022-12-29T04:20:52;12.20;1.00
24460;DHT22;12630;50.860;5.714;2022-12-29T04:23:33;12.10;1.00
24460;DHT22;12630;50.860;5.714;2022-12-29T04:26:01;12.20;1.00
24460;DHT22;12630;50.860;5.714;2022-12-29T04:28:28;12.20;1.00
24460;DHT22;12630;50.860;5.714;2022-12-29T04:30:56;12.20;1.00
24460;DHT22;12630;50.860;5.714;2022-12-29T04:33:23;12.20;1.00
24460;DHT22;12630;50.860;5.714;2022-12-29T04:35:51;12.20;1.00
24460;DHT22;12630;50.860;5.714;2022-12-29T04:38:20;12.20;1.00
24460;DHT22;12630;50.860;5.714;2022-12-29T04:40:50;12.20;1.00
24460;DHT22;12630;50.860;5.714;2022-12-29T04:43:17;12.20;1.00
24460;DHT22;12630;50.860;5.714;2022-12-29T04:45:45;12.10;1.00
24460;DHT22;12630;50.860;5.714;2022-12-29T04:48:13;12.10;1.00
24460;DHT22;12630;50.860;5.714;2022-12-29T04:50:41;12.10;1.00
24460;DHT22;12630;50.860;5.714;2022-12-29T04:53:08;12.10;1.00
24460;DHT22;12630;50.860;5.714;2022-12-29T04:55:36;12.00;1.00
24460;DHT22;12630;50.860;5.714;2022-12-29T04:58:04;12.00;1.00
24460;DHT22;12630;50.860;5.714;2022-12-29T05:00:32;12.00;1.00
24460;DHT22;12630;50.860;5.714;2022-12-29T05:02:59;12.00;1.00
24460;DHT22;12630;50.860;5.714;2022-12-29T05:05:26;12.00;1.00
24460;DHT22;12630;50.860;5.714;2022-12-29T05:07:54;11.90;1.00
24460;DHT22;12630;50.860;5.714;2022-12-29T05:10:21;11.90;1.00
24460;DHT22;12630;50.860;5.714;2022-12-29T05:12:48;11.90;1.00
24460;DHT22;12630;50.860;5.714;2022-12-29T05:15:17;11.90;1.00
24460;DHT22;12630;50.860;5.714;2022-12-29T05:17:44;11.80;1.00
24460;DHT22;12630;50.860;5.714;2022-12-29T05:20:11;11.90;1.00
24460;DHT22;12630;50.860;5.714;2022-12-29T05:22:39;11.90;1.00
24460;DHT22;12630;50.860;5.714;2022-12-29T05:25:07;12.00;1.00
24460;DHT22;12630;50.860;5.714;2022-12-29T05:27:34;11.90;1.00
24460;DHT22;12630;50.860;5.714;2022-12-29T05:30:01;11.90;1.00
24460;DHT22;12630;50.860;5.714;2022-12-29T05:32:30;11.80;1.00
24460;DHT22;12630;50.860;5.714;2022-12-29T05:34:57;11.70;1.00
24460;DHT22;12630;50.860;5.714;2022-12-29T05:37:25;11.70;1.00
24460;DHT22;12630;50.860;5.714;2022-12-29T05:39:52;11.70;1.00
24460;DHT22;12630;50.860;5.714;2022-12-29T05:42:19;11.70;1.00
24460;DHT22;12630;50.860;5.714;2022-12-29T05:44:46;11.60;1.00
24460;DHT22;12630;50.860;5.714;2022-12-29T05:47:17;11.60;1.00
24460;DHT22;12630;50.860;5.714;2022-12-29T05:49:46;11.50;1.00
24460;DHT22;12630;50.860;5.714;2022-12-29T05:52:13;11.40;1.00
24460;DHT22;12630;50.860;5.714;2022-12-29T05:54:41;11.40;1.00
24460;DHT22;12630;50.860;5.714;2022-12-29T05:57:08;11.50;1.00
24460;DHT22;12630;50.860;5.714;2022-12-29T05:59:35;11.50;1.00
24460;DHT22;12630;50.860;5.714;2022-12-29T06:02:03;11.40;1.00
24460;DHT22;12630;50.860;5.714;2022-12-29T06:04:30;11.50;1.00
24460;DHT22;12630;50.860;5.714;2022-12-29T06:06:59;11.60;1.00
24460;DHT22;12630;50.860;5.714;2022-12-29T06:09:26;11.60;1.00
24460;DHT22;12630;50.860;5.714;2022-12-29T06:11:53;11.60;1.00
24460;DHT22;12630;50.860;5.714;2022-12-29T06:14:21;11.60;1.00
24460;DHT22;12630;50.860;5.714;2022-12-29T06:16:48;11.50;1.00
24460;DHT22;12630;50.860;5.714;2022-12-29T06:19:15;11.50;1.00
24460;DHT22;12630;50.860;5.714;2022-12-29T06:21:42;11.40;1.00
24460;DHT22;12630;50.860;5.714;2022-12-29T06:24:11;11.50;1.00
24460;DHT22;12630;50.860;5.714;2022-12-29T06:26:38;11.50;99.90
24460;DHT22;12630;50.860;5.714;2022-12-29T06:29:06;11.50;99.90
24460;DHT22;12630;50.860;5.714;2022-12-29T06:31:34;11.50;1.00
24460;DHT22;12630;50.860;5.714;2022-12-29T06:34:01;11.50;99.90
24460;DHT22;12630;50.860;5.714;2022-12-29T06:36:29;11.50;99.90
24460;DHT22;12630;50.860;5.714;2022-12-29T06:38:56;11.50;1.00
24460;DHT22;12630;50.860;5.714;2022-12-29T06:41:25;11.40;99.90
24460;DHT22;12630;50.860;5.714;2022-12-29T06:43:52;11.40;99.90
24460;DHT22;12630;50.860;5.714;2022-12-29T06:46:20;11.30;99.90
24460;DHT22;12630;50.860;5.714;2022-12-29T06:48:47;11.30;99.90
24460;DHT22;12630;50.860;5.714;2022-12-29T06:51:14;11.30;99.90
24460;DHT22;12630;50.860;5.714;2022-12-29T06:53:42;11.30;99.90
24460;DHT22;12630;50.860;5.714;2022-12-29T06:56:09;11.30;99.90
24460;DHT22;12630;50.860;5.714;2022-12-29T06:58:38;11.30;99.90
24460;DHT22;12630;50.860;5.714;2022-12-29T07:01:06;11.30;99.90
24460;DHT22;12630;50.860;5.714;2022-12-29T07:03:33;11.20;99.90
24460;DHT22;12630;50.860;5.714;2022-12-29T07:06:00;11.10;99.90
24460;DHT22;12630;50.860;5.714;2022-12-29T07:08:28;11.00;99.90
24460;DHT22;12630;50.860;5.714;2022-12-29T07:10:55;11.00;99.90
24460;DHT22;12630;50.860;5.714;2022-12-29T07:13:23;11.00;99.90
24460;DHT22;12630;50.860;5.714;2022-12-29T07:15:51;11.00;99.90
24460;DHT22;12630;50.860;5.714;2022-12-29T07:18:20;11.00;99.90
24460;DHT22;12630;50.860;5.714;2022-12-29T07:20:47;11.00;99.90
24460;DHT22;12630;50.860;5.714;2022-12-29T07:23:14;11.10;99.90
24460;DHT22;12630;50.860;5.714;2022-12-29T07:25:42;11.10;99.90
24460;DHT22;12630;50.860;5.714;2022-12-29T07:28:09;11.30;99.90
24460;DHT22;12630;50.860;5.714;2022-12-29T07:30:37;11.30;99.90
24460;DHT22;12630;50.860;5.714;2022-12-29T07:33:06;11.30;99.90
24460;DHT22;12630;50.860;5.714;2022-12-29T07:35:34;11.30;99.90
24460;DHT22;12630;50.860;5.714;2022-12-29T07:38:01;11.30;99.90
24460;DHT22;12630;50.860;5.714;2022-12-29T07:40:28;11.00;99.90
24460;DHT22;12630;50.860;5.714;2022-12-29T07:42:56;10.90;99.90
24460;DHT22;12630;50.860;5.714;2022-12-29T07:45:23;10.90;99.90
24460;DHT22;12630;50.860;5.714;2022-12-29T07:47:50;10.80;1.00
24460;DHT22;12630;50.860;5.714;2022-12-29T07:50:19;10.70;99.90
24460;DHT22;12630;50.860;5.714;2022-12-29T07:52:47;10.70;99.90
24460;DHT22;12630;50.860;5.714;2022-12-29T07:55:14;10.80;99.90
24460;DHT22;12630;50.860;5.714;2022-12-29T07:57:42;11.00;99.90
24460;DHT22;12630;50.860;5.714;2022-12-29T08:00:10;11.00;99.90
24460;DHT22;12630;50.860;5.714;2022-12-29T08:02:38;11.00;99.90
24460;DHT22;12630;50.860;5.714;2022-12-29T08:05:06;11.10;99.90
24460;DHT22;12630;50.860;5.714;2022-12-29T08:07:35;11.10;99.90
24460;DHT22;12630;50.860;5.714;2022-12-29T08:10:03;11.10;99.90
24460;DHT22;12630;50.860;5.714;2022-12-29T08:12:30;11.10;99.90
24460;DHT22;12630;50.860;5.714;2022-12-29T08:14:57;11.00;99.90
24460;DHT22;12630;50.860;5.714;2022-12-29T08:17:24;10.90;99.90
24460;DHT22;12630;50.860;5.714;2022-12-29T08:19:52;10.90;99.90
24460;DHT22;12630;50.860;5.714;2022-12-29T08:22:19;11.00;99.90
24460;DHT22;12630;50.860;5.714;2022-12-29T08:24:48;11.00;99.90
24460;DHT22;12630;50.860;5.714;2022-12-29T08:27:15;11.00;99.90
24460;DHT22;12630;50.860;5.714;2022-12-29T08:29:42;11.00;99.90
24460;DHT22;12630;50.860;5.714;2022-12-29T08:32:10;11.00;99.90
24460;DHT22;12630;50.860;5.714;2022-12-29T08:34:37;11.00;99.90
24460;DHT22;12630;50.860;5.714;2022-12-29T08:37:05;11.00;99.90
24460;DHT22;12630;50.860;5.714;2022-12-29T08:39:32;11.10;99.90
24460;DHT22;12630;50.860;5.714;2022-12-29T08:42:01;11.20;99.90
24460;DHT22;12630;50.860;5.714;2022-12-29T08:44:29;11.50;99.90
24460;DHT22;12630;50.860;5.714;2022-12-29T08:46:56;11.50;99.90
24460;DHT22;12630;50.860;5.714;2022-12-29T08:49:23;11.60;99.90
24460;DHT22;12630;50.860;5.714;2022-12-29T08:51:51;11.60;99.90
24460;DHT22;12630;50.860;5.714;2022-12-29T08:54:18;11.70;99.90
24460;DHT22;12630;50.860;5.714;2022-12-29T08:56:45;11.80;99.90
24460;DHT22;12630;50.860;5.714;2022-12-29T08:59:14;11.80;99.90
24460;DHT22;12630;50.860;5.714;2022-12-29T09:01:42;12.00;99.90
24460;DHT22;12630;50.860;5.714;2022-12-29T09:04:09;12.00;99.90
24460;DHT22;12630;50.860;5.714;2022-12-29T09:06:36;12.00;99.90
24460;DHT22;12630;50.860;5.714;2022-12-29T09:09:04;12.30;99.90
24460;DHT22;12630;50.860;5.714;2022-12-29T09:11:31;12.20;99.90
24460;DHT22;12630;50.860;5.714;2022-12-29T09:13:58;12.00;99.90
24460;DHT22;12630;50.860;5.714;2022-12-29T09:16:27;12.00;99.90
24460;DHT22;12630;50.860;5.714;2022-12-29T09:18:54;11.70;99.90
24460;DHT22;12630;50.860;5.714;2022-12-29T09:21:22;11.60;99.90
24460;DHT22;12630;50.860;5.714;2022-12-29T09:23:49;11.40;99.90
24460;DHT22;12630;50.860;5.714;2022-12-29T09:26:16;11.30;99.90
24460;DHT22;12630;50.860;5.714;2022-12-29T09:28:44;11.30;99.90
24460;DHT22;12630;50.860;5.714;2022-12-29T09:31:13;11.50;99.90
24460;DHT22;12630;50.860;5.714;2022-12-29T09:33:41;11.70;99.90
24460;DHT22;12630;50.860;5.714;2022-12-29T09:36:09;11.50;99.90
24460;DHT22;12630;50.860;5.714;2022-12-29T09:38:36;11.40;99.90
24460;DHT22;12630;50.860;5.714;2022-12-29T09:41:11;11.30;99.90
24460;DHT22;12630;50.860;5.714;2022-12-29T09:43:50;11.20;99.90
24460;DHT22;12630;50.860;5.714;2022-12-29T09:46:22;11.20;99.90
24460;DHT22;12630;50.860;5.714;2022-12-29T09:48:59;11.20;99.90
24460;DHT22;12630;50.860;5.714;2022-12-29T09:51:31;11.10;99.90
24460;DHT22;12630;50.860;5.714;2022-12-29T09:54:04;11.30;99.90
24460;DHT22;12630;50.860;5.714;2022-12-29T09:56:35;11.40;99.90
24460;DHT22;12630;50.860;5.714;2022-12-29T09:59:08;11.40;99.90
24460;DHT22;12630;50.860;5.714;2022-12-29T10:01:45;11.50;99.90
24460;DHT22;12630;50.860;5.714;2022-12-29T10:04:16;11.50;99.90
24460;DHT22;12630;50.860;5.714;2022-12-29T10:06:50;11.80;99.90
24460;DHT22;12630;50.860;5.714;2022-12-29T10:09:23;11.70;99.90
24460;DHT22;12630;50.860;5.714;2022-12-29T10:12:01;11.60;99.90
24460;DHT22;12630;50.860;5.714;2022-12-29T10:14:43;11.60;99.90
24460;DHT22;12630;50.860;5.714;2022-12-29T10:17:22;11.50;99.90
24460;DHT22;12630;50.860;5.714;2022-12-29T10:20:14;11.40;99.90
24460;DHT22;12630;50.860;5.714;2022-12-29T10:22:54;11.40;99.90
24460;DHT22;12630;50.860;5.714;2022-12-29T10:25:26;11.50;99.90
24460;DHT22;12630;50.860;5.714;2022-12-29T10:27:58;11.50;99.90
24460;DHT22;12630;50.860;5.714;2022-12-29T10:30:27;11.50;99.90
24460;DHT22;12630;50.860;5.714;2022-12-29T10:32:58;11.60;99.90
24460;DHT22;12630;50.860;5.714;2022-12-29T10:35:34;11.60;99.90
24460;DHT22;12630;50.860;5.714;2022-12-29T10:38:13;11.60;99.90
24460;DHT22;12630;50.860;5.714;2022-12-29T10:40:45;11.60;99.90
24460;DHT22;12630;50.860;5.714;2022-12-29T10:43:22;11.60;99.90
24460;DHT22;12630;50.860;5.714;2022-12-29T10:45:52;11.60;99.90
24460;DHT22;12630;50.860;5.714;2022-12-29T10:48:22;11.70;99.90
24460;DHT22;12630;50.860;5.714;2022-12-29T10:50:55;11.60;99.90
24460;DHT22;12630;50.860;5.714;2022-12-29T10:53:26;11.60;99.90
24460;DHT22;12630;50.860;5.714;2022-12-29T10:55:55;11.60;99.90
24460;DHT22;12630;50.860;5.714;2022-12-29T10:58:23;11.60;99.90
24460;DHT22;12630;50.860;5.714;2022-12-29T11:00:54;11.60;99.90
24460;DHT22;12630;50.860;5.714;2022-12-29T11:03:48;11.60;99.90
24460;DHT22;12630;50.860;5.714;2022-12-29T11:06:24;11.60;99.90
24460;DHT22;12630;50.860;5.714;2022-12-29T11:08:55;11.60;99.90
24460;DHT22;12630;50.860;5.714;2022-12-29T11:11:25;11.60;99.90
24460;DHT22;12630;50.860;5.714;2022-12-29T11:13:58;11.50;99.90
24460;DHT22;12630;50.860;5.714;2022-12-29T11:16:30;11.60;99.90
24460;DHT22;12630;50.860;5.714;2022-12-29T11:18:58;11.70;99.90
24460;DHT22;12630;50.860;5.714;2022-12-29T11:21:32;11.80;99.90
24460;DHT22;12630;50.860;5.714;2022-12-29T11:24:01;11.80;99.90
24460;DHT22;12630;50.860;5.714;2022-12-29T11:26:29;12.10;99.90
24460;DHT22;12630;50.860;5.714;2022-12-29T11:29:20;12.40;99.90
24460;DHT22;12630;50.860;5.714;2022-12-29T11:31:50;12.10;99.90
